Wetterdaten der Wetterstation 58769 Nachrodt-Wiblingwerde

Letzte Wetterlage 23.05.2015 09:04
Wetterdiagramm
Tabellarische Darstellung
Datum Temperatur Windchill Feuchte Luftdruck Windrichtung Windstärke Niederschlag
23.05.2015 09:09 13,7 °C 13,7 °C 78 % 1020,0 hPa 0.3 0 l/m²
23.05.2015 09:04 13,5 °C 13,5 °C 78 % 1020,1 hPa 45 0.3 0 l/m²
23.05.2015 08:59 13,4 °C 13,4 °C 79 % 1020,1 hPa 0.3 0 l/m²
23.05.2015 08:54 13,2 °C 13,2 °C 78 % 1020,3 hPa 45 0.0 0 l/m²
23.05.2015 08:49 13,0 °C 13,0 °C 78 % 1020,0 hPa 0.3 0 l/m²
23.05.2015 08:44 12,8 °C 12,8 °C 79 % 1020,0 hPa 45 0.3 0 l/m²
23.05.2015 08:39 12,7 °C 12,7 °C 80 % 1020,1 hPa 0.0 0 l/m²
23.05.2015 08:34 12,6 °C 12,6 °C 80 % 1020,0 hPa 45 0.3 0 l/m²
23.05.2015 08:29 12,4 °C 12,4 °C 80 % 1020,0 hPa 0.0 0 l/m²
23.05.2015 08:24 12,3 °C 12,3 °C 80 % 1019,9 hPa 0.3 0 l/m²
23.05.2015 08:19 12,2 °C 12,2 °C 80 % 1020,0 hPa 0.3 0 l/m²
23.05.2015 08:14 12,1 °C 12,1 °C 80 % 1020,0 hPa 0.0 0 l/m²
23.05.2015 08:09 12,0 °C 12,0 °C 80 % 1020,1 hPa 0.3 0 l/m²
23.05.2015 08:04 11,9 °C 11,9 °C 81 % 1020,0 hPa 0.7 0 l/m²
23.05.2015 07:59 11,9 °C 11,9 °C 81 % 1020,0 hPa 0.3 0 l/m²
23.05.2015 07:54 11,8 °C 11,8 °C 81 % 1020,1 hPa 225 0.3 0 l/m²
23.05.2015 07:49 11,8 °C 11,8 °C 81 % 1020,1 hPa 90 0.0 0 l/m²
23.05.2015 07:44 11,7 °C 11,7 °C 82 % 1020,2 hPa 315 0.3 0 l/m²
23.05.2015 07:39 11,6 °C 11,6 °C 82 % 1020,2 hPa 0.3 0 l/m²
23.05.2015 07:34 11,6 °C 11,6 °C 82 % 1020,1 hPa 0.0 0 l/m²
23.05.2015 07:29 11,5 °C 11,5 °C 82 % 1020,1 hPa 225 0.0 0 l/m²
23.05.2015 07:24 11,4 °C 11,4 °C 82 % 1020,0 hPa 45 0.0 0 l/m²
23.05.2015 07:19 11,4 °C 11,4 °C 82 % 1020,0 hPa 0.0 0 l/m²
23.05.2015 07:14 11,4 °C 11,4 °C 81 % 1019,9 hPa 0.3 0 l/m²
23.05.2015 07:09 11,4 °C 11,4 °C 81 % 1019,8 hPa 315 0.3 0 l/m²
Neue Wetterwarnung

Neue Niederschlagsmeldung
Neue Meldung
Regen Liveticker
    sehr starker Regen/Gewitter
    starker Regen/Gewitter
    mäßiger bis starker Regen
    mäßiger Regen
    leichter bis mäßiger Regen
    kein Regen